Time;durP1;ratioP1;P1;durP2;ratioP2;P2;SDS_P1;SDS_P2;PMS_P1;PMS_P2;Temp;Humidity;BMP_temperature;BMP_pressure;BME280_temperature;BME280_humidity;BME280_pressure;Samples;Min_cycle;Max_cycle;Signal;HPM_P1;HPM_P2
2022/03/21 00:00:59;;;;;;;8.88;1.45;;;21.10;99.90;;;;;;5014460;28;20191;-82
2022/03/21 00:03:30;;;;;;;6.40;1.30;;;21.10;99.90;;;;;;5011936;28;20222;-80
2022/03/21 00:06:03;;;;;;;5.40;1.50;;;21.20;99.90;;;;;;5015033;28;20273;-80
2022/03/21 00:08:34;;;;;;;10.10;1.25;;;21.30;99.90;;;;;;5009577;28;20206;-74
2022/03/21 00:11:05;;;;;;;7.47;1.55;;;21.40;99.90;;;;;;5007336;28;20194;-74
2022/03/21 00:13:36;;;;;;;7.05;1.35;;;21.60;99.90;;;;;;5012840;28;20245;-76
2022/03/21 00:16:07;;;;;;;7.30;1.63;;;21.70;99.90;;;;;;5015045;28;20278;-77
2022/03/21 00:18:38;;;;;;;6.75;1.40;;;21.90;99.90;;;;;;5012988;28;20246;-74
2022/03/21 00:21:11;;;;;;;7.53;1.55;;;22.10;99.90;;;;;;5015181;28;20191;-74
2022/03/21 00:23:41;;;;;;;6.20;1.20;;;22.30;99.90;;;;;;5014137;28;20190;-76
2022/03/21 00:26:12;;;;;;;9.95;1.30;;;22.30;99.90;;;;;;5014480;28;20732;-73
2022/03/21 00:28:43;;;;;;;8.52;1.10;;;22.20;99.90;;;;;;5008546;28;20627;-74
2022/03/21 00:31:13;;;;;;;5.35;1.50;;;22.10;99.90;;;;;;5011291;28;20679;-73
2022/03/21 00:33:44;;;;;;;10.02;2.50;;;22.20;99.90;;;;;;5005970;28;20198;-73
2022/03/21 00:36:17;;;;;;;5.30;1.33;;;22.40;99.90;;;;;;5014223;28;20606;-73
2022/03/21 00:38:48;;;;;;;6.82;1.38;;;22.50;99.90;;;;;;5011132;28;20241;-74
2022/03/21 00:41:19;;;;;;;9.52;1.30;;;22.40;99.90;;;;;;5011501;28;20191;-73
2022/03/21 00:43:52;;;;;;;6.55;1.20;;;22.50;99.90;;;;;;5006307;28;20234;-73
2022/03/21 00:46:23;;;;;;;8.88;1.50;;;22.50;99.90;;;;;;5009581;28;20655;-73
2022/03/21 00:48:54;;;;;;;9.82;1.63;;;22.50;99.90;;;;;;5006223;28;20197;-74
2022/03/21 00:51:27;;;;;;;11.45;1.67;;;22.60;99.90;;;;;;5014265;28;20195;-74
2022/03/21 00:53:57;;;;;;;5.13;1.50;;;22.70;99.90;;;;;;5006174;28;20192;-72
2022/03/21 00:56:28;;;;;;;5.28;1.30;;;22.80;99.90;;;;;;5009718;28;20183;-73
2022/03/21 00:58:59;;;;;;;5.10;1.42;;;22.90;99.90;;;;;;5005151;28;20222;-76
2022/03/21 01:01:30;;;;;;;3.72;0.90;;;23.00;99.90;;;;;;5000266;28;20219;-74
2022/03/21 01:04:01;;;;;;;3.67;1.00;;;23.20;99.90;;;;;;5005671;28;20191;-73
2022/03/21 01:06:33;;;;;;;4.55;0.88;;;23.30;99.90;;;;;;5013832;28;20218;-73
2022/03/21 01:09:04;;;;;;;7.88;1.77;;;23.30;99.90;;;;;;5002991;28;20191;-73
2022/03/21 01:11:35;;;;;;;6.72;1.30;;;23.40;99.90;;;;;;5007119;28;20183;-78
2022/03/21 01:14:05;;;;;;;5.97;0.90;;;23.50;99.90;;;;;;5005731;28;20666;-77
2022/03/21 01:16:39;;;;;;;5.55;1.00;;;23.50;99.90;;;;;;5019121;28;20250;-73
2022/03/21 01:19:10;;;;;;;4.43;1.10;;;23.50;99.90;;;;;;5007736;28;20214;-73
2022/03/21 01:21:42;;;;;;;6.18;1.25;;;23.40;99.90;;;;;;5013182;28;20560;-73
2022/03/21 01:24:13;;;;;;;8.57;1.45;;;23.40;99.90;;;;;;5005326;28;20195;-76
2022/03/21 01:26:43;;;;;;;5.18;1.02;;;23.50;99.90;;;;;;5009814;28;20218;-74
2022/03/21 01:29:14;;;;;;;3.60;1.00;;;23.60;99.90;;;;;;5011186;28;20183;-72
2022/03/21 01:31:45;;;;;;;5.75;1.30;;;23.60;99.90;;;;;;5011138;28;20191;-79
2022/03/21 01:34:15;;;;;;;6.88;1.33;;;23.50;99.90;;;;;;5012307;28;20210;-73
2022/03/21 01:36:48;;;;;;;4.53;0.98;;;23.40;99.90;;;;;;5013680;28;20195;-79
2022/03/21 01:39:19;;;;;;;5.30;1.30;;;23.30;99.90;;;;;;5005314;28;20712;-73
2022/03/21 01:41:49;;;;;;;3.50;1.20;;;23.40;99.90;;;;;;5013096;28;20289;-74
2022/03/21 01:46:57;;;;;;;6.38;1.08;;;23.70;99.90;;;;;;5050637;22;20247;-84
2022/03/21 01:49:28;;;;;;;6.93;1.20;;;24.00;99.90;;;;;;5024764;28;20198;-82
2022/03/21 01:52:00;;;;;;;4.43;0.90;;;24.10;99.90;;;;;;5024631;28;20194;-84
2022/03/21 01:57:18;;;;;;;6.47;1.13;;;24.10;99.90;;;;;;5021620;28;20201;-82
2022/03/21 01:59:50;;;;;;;9.32;1.30;;;24.10;99.90;;;;;;5031880;28;20194;-80
2022/03/21 02:02:21;;;;;;;8.20;1.48;;;24.10;99.90;;;;;;5028303;28;20190;-82
2022/03/21 02:04:52;;;;;;;4.55;1.20;;;24.20;99.90;;;;;;5031282;28;20187;-83
2022/03/21 02:07:25;;;;;;;5.45;1.33;;;24.30;99.90;;;;;;5024768;28;20284;-82
2022/03/21 02:09:57;;;;;;;4.97;1.27;;;24.50;99.90;;;;;;5032386;28;20232;-83
2022/03/21 02:12:28;;;;;;;4.53;1.20;;;24.60;99.90;;;;;;5026481;28;20191;-77
2022/03/21 02:14:59;;;;;;;5.43;1.38;;;24.60;99.90;;;;;;5027447;28;20197;-80
2022/03/21 02:17:30;;;;;;;7.22;1.25;;;24.50;99.90;;;;;;5032044;28;20637;-79
2022/03/21 02:20:03;;;;;;;10.20;1.17;;;24.10;99.90;;;;;;5031620;28;20186;-76
2022/03/21 02:22:47;;;;;;;8.07;1.33;;;24.00;99.90;;;;;;5030351;28;20187;-76
2022/03/21 02:25:32;;;;;;;8.07;1.15;;;24.00;99.90;;;;;;5020794;28;20199;-75
2022/03/21 02:28:04;;;;;;;6.90;1.17;;;23.90;99.90;;;;;;5028571;28;20190;-77
2022/03/21 02:30:40;;;;;;;5.35;1.02;;;23.60;99.90;;;;;;5031755;28;20256;-76
2022/03/21 02:33:12;;;;;;;8.00;1.10;;;23.50;99.90;;;;;;5031432;28;20706;-79
2022/03/21 02:35:45;;;;;;;6.60;1.20;;;23.50;99.90;;;;;;5026958;28;20665;-86
2022/03/21 02:38:18;;;;;;;6.22;1.30;;;23.60;99.90;;;;;;5027988;28;20215;-81
2022/03/21 02:40:50;;;;;;;7.00;0.98;;;23.80;99.90;;;;;;5029487;28;20183;-77
2022/03/21 02:43:21;;;;;;;6.00;1.08;;;23.90;99.90;;;;;;5031245;28;20199;-76
2022/03/21 02:45:52;;;;;;;4.75;1.00;;;23.90;99.90;;;;;;5021725;28;20249;-79
2022/03/21 02:48:22;;;;;;;5.60;1.20;;;23.80;99.90;;;;;;5018977;28;20238;-81
2022/03/21 02:50:58;;;;;;;6.68;1.20;;;23.90;99.90;;;;;;5016183;28;20242;-79
2022/03/21 02:53:32;;;;;;;4.00;1.13;;;24.10;99.90;;;;;;5015902;28;20191;-81
2022/03/21 02:56:05;;;;;;;7.13;1.20;;;24.10;99.90;;;;;;5011872;28;20195;-78
2022/03/21 02:58:35;;;;;;;5.95;1.50;;;24.10;99.90;;;;;;5016842;28;20223;-77
2022/03/21 03:01:13;;;;;;;6.13;1.30;;;24.30;99.90;;;;;;5014998;28;20191;-76
2022/03/21 03:03:44;;;;;;;5.18;1.05;;;24.40;99.90;;;;;;5014614;28;20199;-78
2022/03/21 03:06:15;;;;;;;5.70;1.10;;;24.40;99.90;;;;;;5008581;28;20206;-78
2022/03/21 03:08:46;;;;;;;4.55;1.00;;;24.20;99.90;;;;;;5012801;28;20249;-79
2022/03/21 03:11:19;;;;;;;5.32;1.02;;;24.00;99.90;;;;;;5012263;28;20194;-84
2022/03/21 03:13:49;;;;;;;5.47;0.93;;;23.90;99.90;;;;;;5011478;28;20192;-80
2022/03/21 03:16:20;;;;;;;9.50;1.30;;;23.80;99.90;;;;;;5011929;28;20202;-80
2022/03/21 03:18:51;;;;;;;8.80;1.10;;;23.90;99.90;;;;;;5014252;28;20191;-80
2022/03/21 03:21:25;;;;;;;6.45;1.08;;;24.10;99.90;;;;;;5007744;28;20243;-76
2022/03/21 03:23:56;;;;;;;5.28;1.25;;;24.30;99.90;;;;;;5013966;28;20185;-77
2022/03/21 03:26:29;;;;;;;3.85;0.90;;;24.40;99.90;;;;;;5016549;28;20215;-81
2022/03/21 03:28:59;;;;;;;3.72;1.00;;;24.20;99.90;;;;;;5012922;28;20187;-79
2022/03/21 03:31:30;;;;;;;4.57;1.20;;;24.00;99.90;;;;;;5011358;28;20233;-80
2022/03/21 03:34:01;;;;;;;5.03;1.02;;;23.70;99.90;;;;;;5014160;28;20199;-83
2022/03/21 03:36:32;;;;;;;2.85;1.00;;;23.70;99.90;;;;;;5014518;28;20241;-81
2022/03/21 03:39:03;;;;;;;4.95;1.10;;;23.80;99.90;;;;;;5011338;28;20195;-78
2022/03/21 03:41:35;;;;;;;5.70;0.93;;;23.90;99.90;;;;;;5014316;28;20194;-80
2022/03/21 03:44:06;;;;;;;6.18;1.27;;;24.10;99.90;;;;;;5010331;28;20191;-80
2022/03/21 03:46:36;;;;;;;4.75;0.95;;;24.10;99.90;;;;;;5013409;28;20239;-79
2022/03/21 03:49:07;;;;;;;6.53;1.00;;;24.00;99.90;;;;;;5015025;28;20194;-77
2022/03/21 03:51:37;;;;;;;6.78;1.00;;;24.00;99.90;;;;;;5014021;28;20200;-78
2022/03/21 03:54:08;;;;;;;5.97;1.15;;;23.90;99.90;;;;;;5015392;28;20246;-80
2022/03/21 03:56:41;;;;;;;8.10;1.20;;;23.80;99.90;;;;;;5005789;28;20293;-80
2022/03/21 03:59:11;;;;;;;3.75;0.93;;;23.70;99.90;;;;;;5008796;28;20195;-78
2022/03/21 04:01:42;;;;;;;4.97;1.10;;;23.80;99.90;;;;;;5012926;28;20210;-81
2022/03/21 04:04:13;;;;;;;3.97;1.10;;;24.00;99.90;;;;;;5013071;28;20245;-77
2022/03/21 04:06:44;;;;;;;3.83;1.08;;;23.80;99.90;;;;;;5011555;28;20210;-80
2022/03/21 04:09:14;;;;;;;7.05;1.02;;;23.80;99.90;;;;;;5012402;28;20214;-79
2022/03/21 04:11:47;;;;;;;7.10;1.23;;;23.80;99.90;;;;;;5010749;28;20191;-76
2022/03/21 04:14:18;;;;;;;5.95;1.00;;;23.80;99.90;;;;;;5012776;28;20815;-82
2022/03/21 04:16:48;;;;;;;3.90;1.10;;;23.70;99.90;;;;;;5014100;28;20245;-82
2022/03/21 04:19:19;;;;;;;8.45;1.30;;;23.60;99.90;;;;;;5014353;28;20195;-81
2022/03/21 04:21:50;;;;;;;5.63;0.95;;;23.40;99.90;;;;;;5013721;28;20226;-81
2022/03/21 04:24:21;;;;;;;5.78;1.10;;;23.40;99.90;;;;;;5010868;28;20202;-81
2022/03/21 04:26:53;;;;;;;4.07;1.13;;;23.30;99.90;;;;;;5008526;28;20720;-78
2022/03/21 04:29:24;;;;;;;9.82;1.40;;;23.40;99.90;;;;;;5013202;28;20194;-81
2022/03/21 04:31:54;;;;;;;5.88;1.20;;;23.50;99.90;;;;;;5011222;28;20243;-76
2022/03/21 04:34:25;;;;;;;4.18;1.20;;;23.60;99.90;;;;;;5009808;28;20187;-79
2022/03/21 04:36:56;;;;;;;5.78;1.02;;;23.60;99.90;;;;;;5011702;28;20249;-79
2022/03/21 04:39:26;;;;;;;4.22;1.20;;;23.60;99.90;;;;;;5011980;28;20212;-81
2022/03/21 04:42:00;;;;;;;6.10;1.00;;;23.60;99.90;;;;;;5003603;28;20195;-79
2022/03/21 04:44:31;;;;;;;4.13;1.05;;;23.60;99.90;;;;;;5013333;28;20257;-78
2022/03/21 04:47:01;;;;;;;5.05;1.20;;;23.60;99.90;;;;;;5013610;28;20246;-76
2022/03/21 04:49:32;;;;;;;5.45;1.00;;;23.60;99.90;;;;;;5013249;28;20194;-76
2022/03/21 04:52:03;;;;;;;5.50;1.17;;;23.70;99.90;;;;;;5010832;28;20201;-76
2022/03/21 04:54:33;;;;;;;4.35;0.90;;;23.70;99.90;;;;;;5013520;28;20183;-77
2022/03/21 04:57:08;;;;;;;6.95;1.20;;;23.70;99.90;;;;;;5013794;28;20191;-78
2022/03/21 04:59:39;;;;;;;5.45;1.00;;;23.70;99.90;;;;;;5014427;28;20205;-82
2022/03/21 05:02:10;;;;;;;4.55;0.93;;;23.70;99.90;;;;;;5013152;28;20183;-83
2022/03/21 05:04:41;;;;;;;7.13;1.27;;;23.60;99.90;;;;;;5008186;28;20198;-81
2022/03/21 05:07:16;;;;;;;7.15;1.10;;;23.60;99.90;;;;;;5012392;28;20555;-87
2022/03/21 05:09:47;;;;;;;3.90;1.00;;;23.60;99.90;;;;;;5013527;28;20704;-85
2022/03/21 05:12:20;;;;;;;7.47;1.20;;;23.60;99.90;;;;;;5013187;28;20193;-80
2022/03/21 05:14:51;;;;;;;4.32;1.10;;;23.70;99.90;;;;;;5012853;28;20198;-79
2022/03/21 05:17:21;;;;;;;7.55;1.10;;;23.70;99.90;;;;;;5012867;28;20203;-80
2022/03/21 05:19:52;;;;;;;3.22;0.98;;;23.70;99.90;;;;;;5012429;28;20191;-78
2022/03/21 05:22:23;;;;;;;5.10;1.25;;;23.60;99.90;;;;;;5013167;28;20183;-80
2022/03/21 05:36:00;;;;;;;5.85;0.98;;;23.60;99.90;;;;;;5006964;28;20281;-75
2022/03/21 05:38:32;;;;;;;2.80;0.90;;;23.60;99.90;;;;;;5012363;28;20250;-80
2022/03/21 05:41:03;;;;;;;3.42;0.90;;;23.60;99.90;;;;;;5012135;28;20191;-80
2022/03/21 05:43:37;;;;;;;5.15;1.10;;;23.60;99.90;;;;;;5011798;28;20191;-80
2022/03/21 05:46:11;;;;;;;3.15;1.15;;;23.60;99.90;;;;;;5006478;28;20285;-80
2022/03/21 05:48:54;;;;;;;5.70;1.10;;;23.60;99.90;;;;;;5010139;28;20656;-81
2022/03/21 05:51:27;;;;;;;3.63;0.90;;;23.60;99.90;;;;;;5007463;28;20191;-81
2022/03/21 05:53:58;;;;;;;4.32;1.13;;;23.60;99.90;;;;;;5012718;28;20183;-77
2022/03/21 05:56:29;;;;;;;5.60;0.82;;;23.50;99.90;;;;;;5010601;28;20233;-76
2022/03/21 06:00:20;;;;;;;4.18;0.98;;;23.50;99.90;;;;;;5006360;28;20199;-78
2022/03/21 06:01:53;;;;;;;7.85;0.95;;;23.60;99.90;;;;;;5012107;28;20260;-80
2022/03/21 06:04:24;;;;;;;3.75;0.90;;;23.50;99.90;;;;;;5012511;28;20191;-80
2022/03/21 06:06:55;;;;;;;4.57;1.05;;;23.40;99.90;;;;;;5011884;28;20292;-82
2022/03/21 06:09:25;;;;;;;2.60;0.57;;;23.40;99.90;;;;;;5009294;28;20187;-80
2022/03/21 06:11:56;;;;;;;4.88;0.90;;;23.30;99.90;;;;;;5011194;28;20249;-80
2022/03/21 06:14:28;;;;;;;4.35;1.23;;;23.30;99.90;;;;;;5009153;28;20210;-81
2022/03/21 06:16:59;;;;;;;3.80;1.10;;;23.40;99.90;;;;;;5002447;28;20264;-83
2022/03/21 06:19:29;;;;;;;3.17;0.80;;;23.30;99.90;;;;;;5007999;28;20230;-80
2022/03/21 06:22:00;;;;;;;5.50;1.00;;;23.30;99.90;;;;;;5008920;28;20609;-80
2022/03/21 06:24:31;;;;;;;2.63;0.80;;;23.30;99.90;;;;;;5007267;28;20253;-80
2022/03/21 06:27:01;;;;;;;5.20;1.08;;;23.30;99.90;;;;;;5013115;28;20222;-82
2022/03/21 06:29:34;;;;;;;2.35;0.70;;;23.30;99.90;;;;;;5004929;28;20187;-78
2022/03/21 06:32:04;;;;;;;4.22;0.93;;;23.30;99.90;;;;;;5004051;28;20634;-76
2022/03/21 06:34:35;;;;;;;5.63;0.82;;;23.30;99.90;;;;;;5011449;28;20187;-80
2022/03/21 06:37:06;;;;;;;5.70;1.17;;;23.20;99.90;;;;;;5011332;28;20548;-81
2022/03/21 06:39:36;;;;;;;5.70;0.90;;;23.20;99.90;;;;;;5016923;28;20194;-81
2022/03/21 06:42:08;;;;;;;4.07;1.10;;;23.30;99.90;;;;;;5009011;28;20598;-80
2022/03/21 06:44:41;;;;;;;6.55;0.90;;;23.20;99.90;;;;;;5009719;28;20652;-83
2022/03/21 06:47:12;;;;;;;6.53;1.00;;;23.10;99.90;;;;;;5006640;28;20248;-78
2022/03/21 06:49:42;;;;;;;4.13;0.98;;;23.00;99.90;;;;;;5010986;28;20203;-76
2022/03/21 06:52:18;;;;;;;3.67;0.90;;;22.90;99.90;;;;;;5009646;28;20184;-82
2022/03/21 06:54:49;;;;;;;4.45;1.20;;;22.90;99.90;;;;;;5012487;28;20191;-79
2022/03/21 06:57:21;;;;;;;3.60;0.90;;;22.80;99.90;;;;;;5009909;28;20214;-77
2022/03/21 06:59:53;;;;;;;5.70;1.10;;;22.80;99.90;;;;;;5009728;28;20195;-80
2022/03/21 07:02:24;;;;;;;3.97;1.15;;;22.90;99.90;;;;;;5011837;28;20187;-75
2022/03/21 07:04:54;;;;;;;5.47;0.95;;;22.80;99.90;;;;;;5013623;28;20190;-76
2022/03/21 07:07:25;;;;;;;5.47;1.10;;;22.70;99.90;;;;;;5011113;28;20740;-77
2022/03/21 07:09:56;;;;;;;5.32;1.30;;;22.70;99.90;;;;;;5008947;28;20187;-79
2022/03/21 07:12:27;;;;;;;5.10;1.02;;;22.60;99.90;;;;;;5005530;28;20226;-75
2022/03/21 07:14:59;;;;;;;4.30;1.00;;;22.60;99.90;;;;;;5010736;28;20184;-80
2022/03/21 07:17:30;;;;;;;7.40;1.15;;;22.50;99.90;;;;;;5017623;28;20669;-76
2022/03/21 07:20:00;;;;;;;6.30;1.38;;;22.50;99.90;;;;;;5010867;28;20607;-76
2022/03/21 07:22:31;;;;;;;4.35;1.33;;;22.50;99.90;;;;;;5006476;28;20187;-76
2022/03/21 07:25:02;;;;;;;5.85;1.65;;;22.40;99.90;;;;;;5002381;28;20191;-76
2022/03/21 07:27:32;;;;;;;4.53;1.17;;;22.40;99.90;;;;;;5008623;28;20218;-80
2022/03/21 07:30:05;;;;;;;5.15;1.30;;;22.30;99.90;;;;;;5012734;28;20662;-76
2022/03/21 07:32:36;;;;;;;4.60;1.35;;;22.20;99.90;;;;;;5011277;28;20191;-76
2022/03/21 07:35:07;;;;;;;5.00;1.30;;;22.20;99.90;;;;;;5011374;28;20187;-76
2022/03/21 07:37:43;;;;;;;4.25;0.98;;;22.20;99.90;;;;;;5011500;28;20646;-77
2022/03/21 07:40:16;;;;;;;4.15;1.45;;;22.20;99.90;;;;;;5012788;28;20666;-76
2022/03/21 07:42:47;;;;;;;5.53;1.40;;;22.20;99.90;;;;;;5014419;28;20191;-76
2022/03/21 07:48:08;;;;;;;5.70;1.30;;;22.00;99.90;;;;;;5015561;28;20218;-76
2022/03/21 07:50:38;;;;;;;3.95;1.30;;;22.00;99.90;;;;;;5016600;28;20184;-76
2022/03/21 07:53:09;;;;;;;6.95;1.30;;;21.90;99.90;;;;;;5012522;28;20222;-78
2022/03/21 07:55:40;;;;;;;5.03;1.25;;;21.90;99.90;;;;;;5014782;28;20245;-75
2022/03/21 07:58:11;;;;;;;6.03;1.20;;;21.80;99.90;;;;;;5021860;28;20194;-76
2022/03/21 08:00:44;;;;;;;3.53;1.00;;;21.80;99.90;;;;;;5011527;28;20269;-75
2022/03/21 08:03:16;;;;;;;6.72;1.30;;;21.70;99.90;;;;;;5011047;28;20256;-76
2022/03/21 08:05:46;;;;;;;5.90;0.90;;;21.70;99.90;;;;;;5014731;28;20195;-77
2022/03/21 08:08:17;;;;;;;5.70;1.23;;;21.70;99.90;;;;;;5012083;28;20207;-76
2022/03/21 08:10:48;;;;;;;3.95;1.10;;;21.60;99.90;;;;;;5013765;28;20622;-76
2022/03/21 08:13:19;;;;;;;3.88;1.13;;;21.50;99.90;;;;;;5014946;28;20245;-77
2022/03/21 08:15:51;;;;;;;4.75;1.00;;;21.50;99.90;;;;;;5007068;28;20195;-76
2022/03/21 08:18:22;;;;;;;3.85;0.90;;;21.40;99.90;;;;;;5009642;28;20192;-76
2022/03/21 08:20:53;;;;;;;4.63;1.10;;;21.40;99.90;;;;;;5013411;28;20194;-80
2022/03/21 08:23:23;;;;;;;3.00;0.70;;;21.30;99.90;;;;;;5013149;28;20249;-79
2022/03/21 08:25:56;;;;;;;3.72;0.85;;;21.30;99.90;;;;;;5007227;28;20203;-80
2022/03/21 08:28:26;;;;;;;5.45;1.00;;;21.30;99.90;;;;;;5016793;28;20260;-80
2022/03/21 08:30:59;;;;;;;6.03;1.73;;;21.20;99.90;;;;;;5012831;28;20218;-76
2022/03/21 08:33:29;;;;;;;4.18;1.10;;;21.20;99.90;;;;;;5012863;28;20183;-78
2022/03/21 08:36:00;;;;;;;5.70;1.40;;;21.20;99.90;;;;;;5008914;28;20234;-76
2022/03/21 08:38:30;;;;;;;5.22;1.58;;;21.10;99.90;;;;;;5009529;28;20206;-77
2022/03/21 08:41:01;;;;;;;4.95;1.20;;;21.10;99.90;;;;;;5006788;28;20187;-79
2022/03/21 08:43:32;;;;;;;5.07;1.10;;;21.10;99.90;;;;;;5013372;28;20643;-77
2022/03/21 08:46:04;;;;;;;6.20;2.20;;;21.10;99.90;;;;;;5014321;28;20273;-82
2022/03/21 08:51:23;;;;;;;5.18;1.20;;;21.00;99.90;;;;;;5012135;28;20670;-79
2022/03/21 08:53:53;;;;;;;3.88;1.23;;;21.00;99.90;;;;;;5020191;28;20562;-78
2022/03/21 08:56:25;;;;;;;4.45;1.00;;;21.00;99.90;;;;;;5013057;28;20187;-78
2022/03/21 08:58:56;;;;;;;7.07;1.17;;;20.90;99.90;;;;;;5013439;28;20274;-79
2022/03/21 09:01:28;;;;;;;5.00;1.48;;;20.90;99.90;;;;;;5016687;28;20202;-76
2022/03/21 09:04:00;;;;;;;3.67;1.20;;;20.80;99.90;;;;;;5013531;28;20191;-79
2022/03/21 09:06:31;;;;;;;6.35;1.20;;;20.80;99.90;;;;;;5011404;28;20183;-81
2022/03/21 09:09:01;;;;;;;2.58;0.95;;;20.80;99.90;;;;;;5013058;28;20211;-81
2022/03/21 09:11:32;;;;;;;4.72;1.20;;;20.70;99.90;;;;;;5014814;28;20246;-81
2022/03/21 09:14:03;;;;;;;3.40;1.10;;;20.70;99.90;;;;;;5006986;28;20586;-81
2022/03/21 09:16:38;;;;;;;4.43;1.35;;;20.70;99.90;;;;;;5011724;28;20183;-79
2022/03/21 09:19:13;;;;;;;3.95;1.40;;;20.70;99.90;;;;;;5007113;28;20551;-80
2022/03/21 09:21:44;;;;;;;4.95;1.55;;;20.60;99.90;;;;;;5007328;28;20198;-81
2022/03/21 09:24:15;;;;;;;4.70;1.48;;;20.60;99.90;;;;;;5008952;28;20187;-80
2022/03/21 09:26:45;;;;;;;5.03;1.38;;;20.60;99.90;;;;;;5007279;28;20313;-80
2022/03/21 09:29:16;;;;;;;5.45;1.40;;;20.50;99.90;;;;;;5019535;28;20273;-79
2022/03/21 09:31:49;;;;;;;6.13;1.75;;;20.40;99.90;;;;;;5009368;28;20191;-80
2022/03/21 09:34:20;;;;;;;6.63;1.40;;;20.40;99.90;;;;;;5016479;28;20190;-80
2022/03/21 09:36:51;;;;;;;5.57;1.30;;;20.30;99.90;;;;;;5009974;28;20202;-81
2022/03/21 09:39:22;;;;;;;4.20;1.48;;;20.30;99.90;;;;;;5006027;28;20243;-80
2022/03/21 09:41:53;;;;;;;4.20;1.10;;;20.20;99.90;;;;;;5008329;28;20249;-81
2022/03/21 09:44:29;;;;;;;3.42;1.20;;;20.20;99.90;;;;;;5011657;28;20746;-79
2022/03/21 09:48:08;;;;;;;6.80;1.60;;;20.20;99.90;;;;;;5009896;28;20238;-78
2022/03/21 09:49:56;;;;;;;4.45;1.30;;;20.20;99.90;;;;;;5013343;28;20250;-81
2022/03/21 09:52:30;;;;;;;2.53;1.20;;;20.20;99.90;;;;;;5010318;28;20246;-81
2022/03/21 09:55:01;;;;;;;3.70;1.30;;;20.10;99.90;;;;;;5012279;28;20270;-81
2022/03/21 09:57:31;;;;;;;3.80;1.10;;;20.10;99.90;;;;;;5010004;28;20191;-79
2022/03/21 10:00:02;;;;;;;4.25;1.27;;;20.00;99.90;;;;;;5010537;28;20195;-80
2022/03/21 10:02:36;;;;;;;4.35;1.17;;;20.00;99.90;;;;;;5010610;28;20553;-79
2022/03/21 10:05:08;;;;;;;4.28;1.30;;;20.00;99.90;;;;;;5009085;28;20276;-81
2022/03/21 10:07:38;;;;;;;2.58;1.02;;;20.00;99.90;;;;;;5011357;28;20187;-79
2022/03/21 10:10:12;;;;;;;4.10;1.63;;;20.00;99.90;;;;;;5006449;28;20230;-78
2022/03/21 10:12:43;;;;;;;2.92;1.30;;;19.90;99.90;;;;;;5012751;28;20183;-82
2022/03/21 10:15:15;;;;;;;5.40;1.40;;;19.90;99.90;;;;;;5004375;28;20249;-81
2022/03/21 10:18:08;;;;;;;6.03;1.38;;;19.80;99.90;;;;;;5007933;28;20697;-78
2022/03/21 10:20:42;;;;;;;4.60;1.20;;;19.80;99.90;;;;;;5004725;28;20194;-78
2022/03/21 10:23:23;;;;;;;4.90;1.30;;;19.80;99.90;;;;;;5010724;28;20195;-78
2022/03/21 10:25:54;;;;;;;6.22;1.45;;;19.80;99.90;;;;;;5009080;28;20274;-78
2022/03/21 10:28:39;;;;;;;4.45;1.27;;;19.80;99.90;;;;;;5006077;28;20211;-77
2022/03/21 10:31:10;;;;;;;5.10;1.40;;;19.80;99.90;;;;;;5012144;28;20620;-80
2022/03/21 10:33:42;;;;;;;5.45;1.42;;;19.70;99.90;;;;;;5012347;28;20195;-81
2022/03/21 10:36:17;;;;;;;4.57;1.50;;;19.70;99.90;;;;;;5011436;28;20647;-80
2022/03/21 10:38:48;;;;;;;5.93;1.10;;;19.60;99.90;;;;;;5008935;28;20190;-81
2022/03/21 10:41:20;;;;;;;6.00;1.23;;;19.50;99.90;;;;;;5011795;28;20187;-81
2022/03/21 10:43:58;;;;;;;3.95;1.40;;;19.50;99.90;;;;;;5012448;28;20187;-81
2022/03/21 10:46:29;;;;;;;5.03;1.70;;;19.50;99.90;;;;;;5012731;28;20269;-81
2022/03/21 10:49:11;;;;;;;4.55;1.17;;;19.50;99.90;;;;;;5010505;28;20708;-82
2022/03/21 10:52:01;;;;;;;4.03;1.17;;;19.50;99.90;;;;;;5010350;28;20233;-77
2022/03/21 10:54:48;;;;;;;4.07;1.20;;;19.50;99.90;;;;;;4997497;28;20238;-81
2022/03/21 10:57:36;;;;;;;3.65;1.30;;;19.50;99.90;;;;;;5003041;28;20192;-82
2022/03/21 11:00:20;;;;;;;4.18;1.65;;;19.50;99.90;;;;;;5004670;28;20218;-81
2022/03/21 11:02:56;;;;;;;2.55;1.20;;;19.50;99.90;;;;;;5007286;28;20278;-81
2022/03/21 11:05:30;;;;;;;3.60;1.30;;;19.50;99.90;;;;;;5011507;28;20198;-82
2022/03/21 11:08:01;;;;;;;2.58;1.33;;;19.50;99.90;;;;;;5018381;28;20275;-81
2022/03/21 11:10:32;;;;;;;4.78;1.58;;;19.50;99.90;;;;;;5017693;28;20658;-81
2022/03/21 11:13:04;;;;;;;6.00;1.50;;;19.50;99.90;;;;;;5009287;28;20196;-80
2022/03/21 11:15:35;;;;;;;6.00;1.65;;;19.50;99.90;;;;;;5015887;28;20241;-82
2022/03/21 11:18:06;;;;;;;6.70;1.55;;;19.50;99.90;;;;;;5015234;28;20186;-80
2022/03/21 11:20:39;;;;;;;5.70;1.63;;;19.40;99.90;;;;;;5015939;28;20245;-81
2022/03/21 11:23:10;;;;;;;4.20;1.60;;;19.40;99.90;;;;;;5008325;28;20246;-80
2022/03/21 11:25:48;;;;;;;3.63;1.73;;;19.30;99.90;;;;;;5007774;28;20191;-81
2022/03/21 11:28:50;;;;;;;6.05;3.33;;;19.30;99.90;;;;;;5008434;28;20191;-81
2022/03/21 11:31:51;;;;;;;13.88;6.88;;;19.30;99.90;;;;;;5015306;28;20206;-81
2022/03/21 11:34:42;;;;;;;5.68;2.75;;;19.30;99.90;;;;;;5019669;28;20198;-81
2022/03/21 11:37:28;;;;;;;4.03;2.00;;;19.30;99.90;;;;;;5008070;28;20283;-81
2022/03/21 11:40:32;;;;;;;6.60;2.35;;;19.30;99.90;;;;;;5008553;28;20608;-81
2022/03/21 11:43:30;;;;;;;6.40;2.17;;;19.30;99.90;;;;;;5006255;28;20199;-81
2022/03/21 11:46:20;;;;;;;7.65;3.55;;;19.30;99.90;;;;;;5009914;28;20610;-81
2022/03/21 11:48:51;;;;;;;4.53;2.20;;;19.30;99.90;;;;;;5010298;28;20218;-81
2022/03/21 11:51:29;;;;;;;5.57;2.03;;;19.30;99.90;;;;;;5013569;28;20199;-81
2022/03/21 11:54:03;;;;;;;4.15;1.90;;;19.30;99.90;;;;;;5011891;28;20199;-84
2022/03/21 11:57:01;;;;;;;4.18;2.10;;;19.30;99.90;;;;;;5014025;28;20222;-80
2022/03/21 12:00:03;;;;;;;6.18;2.00;;;19.30;99.90;;;;;;5015286;28;20199;-81
2022/03/21 12:02:58;;;;;;;7.57;2.53;;;19.30;99.90;;;;;;4991656;28;20216;-81
2022/03/21 12:05:54;;;;;;;7.13;2.38;;;19.20;99.90;;;;;;5012757;28;20194;-81
2022/03/21 12:08:49;;;;;;;4.82;2.20;;;19.20;99.90;;;;;;5013148;28;20187;-80
2022/03/21 12:12:04;;;;;;;5.47;1.85;;;19.10;99.90;;;;;;4996197;28;20199;-80
2022/03/21 12:14:43;;;;;;;4.65;1.83;;;19.00;99.90;;;;;;5006533;28;20191;-80
2022/03/21 12:17:37;;;;;;;5.43;1.50;;;18.90;99.90;;;;;;5009190;28;20560;-76
2022/03/21 12:20:15;;;;;;;4.40;1.70;;;18.90;99.90;;;;;;4990231;28;20207;-79
2022/03/21 12:22:47;;;;;;;4.63;1.58;;;18.90;99.90;;;;;;5013424;28;20713;-78
2022/03/21 12:25:23;;;;;;;4.22;1.73;;;18.90;99.90;;;;;;5015377;28;20238;-78
2022/03/21 12:27:57;;;;;;;4.65;1.60;;;18.90;99.90;;;;;;5006547;28;20261;-77
2022/03/21 12:30:40;;;;;;;5.72;1.83;;;18.90;99.90;;;;;;5008218;28;20255;-78
2022/03/21 12:33:32;;;;;;;6.32;1.75;;;18.90;99.90;;;;;;5015478;28;20194;-77
2022/03/21 12:38:47;;;;;;;4.38;1.70;;;18.90;99.90;;;;;;5013188;28;20202;-79
2022/03/21 12:41:19;;;;;;;4.60;1.58;;;18.90;99.90;;;;;;5014325;28;20595;-78
2022/03/21 12:44:08;;;;;;;4.45;1.75;;;18.80;99.90;;;;;;5015816;28;20223;-79
2022/03/21 12:46:40;;;;;;;4.32;1.55;;;18.80;99.90;;;;;;5010569;28;20218;-76
2022/03/21 12:49:11;;;;;;;4.45;1.95;;;18.80;99.90;;;;;;5013712;28;20211;-77
2022/03/21 12:51:41;;;;;;;3.45;1.55;;;18.80;99.90;;;;;;5014241;28;20199;-77
2022/03/21 12:54:12;;;;;;;5.63;1.77;;;18.80;99.90;;;;;;5017325;28;20191;-77
2022/03/21 12:56:42;;;;;;;3.65;1.60;;;18.80;99.90;;;;;;5009348;28;20253;-78
2022/03/21 12:59:15;;;;;;;3.85;1.52;;;18.80;99.90;;;;;;5009819;28;20560;-79
2022/03/21 13:01:46;;;;;;;3.92;1.48;;;18.80;99.90;;;;;;5011661;28;20192;-78
2022/03/21 13:12:41;;;;;;;3.00;1.60;;;18.70;99.90;;;;;;5010585;28;20198;-78
2022/03/21 13:15:15;;;;;;;5.65;1.70;;;18.70;99.90;;;;;;5016081;28;20192;-80
2022/03/21 13:17:57;;;;;;;4.35;1.65;;;18.70;99.90;;;;;;5014596;28;20194;-76
2022/03/21 13:20:29;;;;;;;3.80;1.77;;;18.70;99.90;;;;;;5013562;28;20195;-78
2022/03/21 13:23:03;;;;;;;6.47;1.70;;;18.70;99.90;;;;;;5013383;28;20197;-77
2022/03/21 13:25:34;;;;;;;5.47;1.70;;;18.70;99.90;;;;;;5002324;28;20234;-78
2022/03/21 13:28:13;;;;;;;5.55;1.80;;;18.70;99.90;;;;;;5015167;28;20203;-77
2022/03/21 13:31:00;;;;;;;4.95;1.83;;;18.70;99.90;;;;;;5010527;28;20210;-77
2022/03/21 13:33:32;;;;;;;4.82;1.70;;;18.70;99.90;;;;;;5013010;28;20708;-78
2022/03/21 13:36:05;;;;;;;4.18;1.77;;;18.70;99.90;;;;;;5012787;28;20195;-81
2022/03/21 13:38:37;;;;;;;5.00;1.50;;;18.60;99.90;;;;;;5012713;28;20241;-80
2022/03/21 13:41:16;;;;;;;4.07;1.77;;;18.60;99.90;;;;;;5012773;28;20646;-77
2022/03/21 13:44:01;;;;;;;5.82;2.00;;;18.60;99.90;;;;;;5009725;28;20214;-78
2022/03/21 13:46:35;;;;;;;5.85;1.90;;;18.60;99.90;;;;;;5007670;28;20223;-81
2022/03/21 13:49:07;;;;;;;6.47;1.70;;;18.60;99.90;;;;;;5011419;28;20202;-78
2022/03/21 13:51:47;;;;;;;4.05;1.80;;;18.50;99.90;;;;;;5013747;28;20198;-77